createdAt,value
2018-06-03T00:00:19.510Z,101574.16
2018-06-03T00:02:47.774Z,101573.02
2018-06-03T00:05:16.011Z,101567.72
2018-06-03T00:07:44.169Z,101570.80
2018-06-03T00:10:12.285Z,101565.53
2018-06-03T00:12:40.456Z,101570.27
2018-06-03T00:15:08.591Z,101569.03
2018-06-03T00:17:36.711Z,101564.70
2018-06-03T00:20:04.843Z,101565.20
2018-06-03T00:22:32.975Z,101564.47
2018-06-03T00:25:01.146Z,101560.70
2018-06-03T00:27:29.279Z,101565.52
2018-06-03T00:29:57.408Z,101565.23
2018-06-03T00:32:25.560Z,101567.42
2018-06-03T00:34:53.709Z,101563.33
2018-06-03T00:37:21.825Z,101560.18
2018-06-03T00:39:49.964Z,101557.97
2018-06-03T00:42:18.129Z,101555.44
2018-06-03T00:44:46.247Z,101555.33
2018-06-03T00:47:14.391Z,101553.13
2018-06-03T00:49:42.530Z,101554.75
2018-06-03T00:52:10.655Z,101560.47
2018-06-03T00:54:38.797Z,101556.06
2018-06-03T00:57:09.777Z,101553.30
2018-06-03T00:59:37.922Z,101557.11
2018-06-03T01:02:06.060Z,101552.41
2018-06-03T01:04:34.200Z,101554.48
2018-06-03T01:07:02.593Z,101552.34
2018-06-03T01:09:30.711Z,101551.27
2018-06-03T01:11:58.851Z,101551.51
2018-06-03T01:14:27.003Z,101546.19
2018-06-03T01:16:55.149Z,101552.42
2018-06-03T01:19:23.302Z,101550.86
2018-06-03T01:21:51.446Z,101547.64
2018-06-03T01:24:19.575Z,101549.16
2018-06-03T01:26:47.728Z,101548.59
2018-06-03T01:29:15.933Z,101549.20
2018-06-03T01:31:44.186Z,101547.19
2018-06-03T01:34:12.345Z,101546.27
2018-06-03T01:36:40.485Z,101543.55
2018-06-03T01:39:08.604Z,101541.45
2018-06-03T01:41:36.769Z,101540.58
2018-06-03T01:44:04.893Z,101541.84
2018-06-03T01:46:33.042Z,101538.04
2018-06-03T01:49:01.189Z,101539.11
2018-06-03T01:51:29.325Z,101534.34
2018-06-03T01:53:58.057Z,101533.23
2018-06-03T01:56:26.211Z,101529.83
2018-06-03T01:58:54.327Z,101533.11
2018-06-03T02:01:22.472Z,101536.67
2018-06-03T02:03:50.609Z,101533.53
2018-06-03T02:06:18.767Z,101537.09
2018-06-03T02:08:46.906Z,101534.14
2018-06-03T02:11:15.039Z,101535.66
2018-06-03T02:13:43.186Z,101536.16
2018-06-03T02:16:11.345Z,101534.95
2018-06-03T02:18:39.460Z,101535.50
2018-06-03T02:21:07.633Z,101539.14
2018-06-03T02:23:35.775Z,101539.43
2018-06-03T02:26:03.884Z,101535.73
2018-06-03T02:28:32.037Z,101532.35
2018-06-03T02:31:00.169Z,101532.99
2018-06-03T02:33:28.319Z,101523.32
2018-06-03T02:35:56.466Z,101528.70
2018-06-03T02:38:24.663Z,101526.42
2018-06-03T02:40:52.794Z,101524.59
2018-06-03T02:43:20.927Z,101529.20
2018-06-03T02:45:49.117Z,101531.91
2018-06-03T02:48:17.275Z,101527.13
2018-06-03T02:50:45.400Z,101531.52
2018-06-03T02:53:13.526Z,101522.81
2018-06-03T02:55:42.127Z,101527.32
2018-06-03T02:58:10.288Z,101528.05
2018-06-03T03:00:38.407Z,101523.94
2018-06-03T03:03:06.562Z,101524.91
2018-06-03T03:05:34.692Z,101525.83
2018-06-03T03:08:02.808Z,101525.98
2018-06-03T03:10:31.163Z,101516.60
2018-06-03T03:12:59.295Z,101526.92
2018-06-03T03:15:27.430Z,101522.03
2018-06-03T03:17:55.578Z,101516.28
2018-06-03T03:20:23.714Z,101519.02
2018-06-03T03:22:51.866Z,101526.50
2018-06-03T03:25:19.998Z,101523.26
2018-06-03T03:27:48.187Z,101523.16
2018-06-03T03:30:16.416Z,101525.80
2018-06-03T03:32:44.565Z,101526.19
2018-06-03T03:35:12.714Z,101523.44
2018-06-03T03:37:40.850Z,101522.20
2018-06-03T03:40:08.990Z,101522.94
2018-06-03T03:42:37.112Z,101528.34
2018-06-03T03:45:05.250Z,101529.45
2018-06-03T03:47:33.407Z,101518.67
2018-06-03T03:50:01.546Z,101530.19
2018-06-03T03:52:29.700Z,101524.86
2018-06-03T03:54:57.819Z,101528.97
2018-06-03T03:57:25.958Z,101526.04
2018-06-03T03:59:54.117Z,101529.05
2018-06-03T04:02:22.254Z,101523.83
2018-06-03T04:04:50.369Z,101523.70
2018-06-03T04:08:00.297Z,101522.27
2018-06-03T04:10:28.458Z,101525.62
2018-06-03T04:12:56.598Z,101520.59
2018-06-03T04:15:24.725Z,101526.53
2018-06-03T04:17:52.866Z,101523.55
2018-06-03T04:20:20.992Z,101521.89
2018-06-03T04:22:49.138Z,101516.96
2018-06-03T04:25:17.287Z,101522.27
2018-06-03T04:27:45.457Z,101523.16
2018-06-03T04:30:13.594Z,101527.53
2018-06-03T04:32:41.719Z,101523.16
2018-06-03T04:35:09.862Z,101529.86
2018-06-03T04:37:38.024Z,101523.86
2018-06-03T04:40:06.177Z,101526.72
2018-06-03T04:42:34.310Z,101530.02
2018-06-03T04:45:02.437Z,101529.59
2018-06-03T04:47:30.570Z,101530.18
2018-06-03T04:49:58.723Z,101533.38
2018-06-03T04:52:26.859Z,101535.45
2018-06-03T04:54:55.012Z,101539.72
2018-06-03T04:57:23.142Z,101535.50
2018-06-03T04:59:51.442Z,101540.80
2018-06-03T05:02:20.408Z,101540.30
2018-06-03T05:04:48.632Z,101548.63
2018-06-03T05:07:16.789Z,101538.45
2018-06-03T05:09:44.909Z,101540.91
2018-06-03T05:12:13.453Z,101541.80
2018-06-03T05:14:41.985Z,101541.54
2018-06-03T05:17:10.152Z,101546.58
2018-06-03T05:19:38.290Z,101539.09
2018-06-03T05:22:06.450Z,101546.05
2018-06-03T05:24:34.695Z,101555.63
2018-06-03T05:27:02.828Z,101547.80
2018-06-03T05:29:30.943Z,101551.27
2018-06-03T05:31:59.089Z,101551.31
2018-06-03T05:34:27.236Z,101557.34
2018-06-03T05:36:55.395Z,101552.81
2018-06-03T05:39:23.535Z,101556.91
2018-06-03T05:41:51.680Z,101557.95
2018-06-03T05:44:19.822Z,101564.59
2018-06-03T05:46:47.958Z,101564.63
2018-06-03T05:49:16.125Z,101564.02
2018-06-03T05:51:44.268Z,101566.20
2018-06-03T05:54:12.398Z,101565.31
2018-06-03T05:56:40.537Z,101566.01
2018-06-03T05:59:08.682Z,101566.01
2018-06-03T06:01:36.818Z,101568.19
2018-06-03T06:04:04.967Z,101571.75
2018-06-03T06:06:33.098Z,101574.20
2018-06-03T06:09:01.255Z,101581.33
2018-06-03T06:11:29.370Z,101584.58
2018-06-03T06:13:57.500Z,101580.62
2018-06-03T06:16:25.636Z,101589.25
2018-06-03T06:18:53.751Z,101594.08
2018-06-03T06:21:21.898Z,101590.77
2018-06-03T06:23:50.029Z,101595.00
2018-06-03T06:26:18.201Z,101592.05
2018-06-03T06:28:46.335Z,101595.28
2018-06-03T06:31:14.476Z,101596.66
2018-06-03T06:33:42.603Z,101596.97
2018-06-03T06:36:10.754Z,101596.15
2018-06-03T06:38:38.973Z,101598.09
2018-06-03T06:41:07.103Z,101595.32
2018-06-03T06:43:35.228Z,101594.86
2018-06-03T06:46:03.370Z,101593.86
2018-06-03T06:48:31.524Z,101597.81
2018-06-03T06:50:59.678Z,101599.64
2018-06-03T06:53:27.828Z,101596.40
2018-06-03T06:55:56.012Z,101600.44
2018-06-03T06:58:24.162Z,101602.36
2018-06-03T07:00:52.301Z,101600.32
2018-06-03T07:03:20.525Z,101606.78
2018-06-03T07:05:48.634Z,101603.80
2018-06-03T07:08:16.770Z,101608.14
2018-06-03T07:10:45.184Z,101610.09
2018-06-03T07:13:13.340Z,101609.90
2018-06-03T07:15:41.460Z,101613.20
2018-06-03T07:18:09.623Z,101612.54
2018-06-03T07:20:37.736Z,101612.95
2018-06-03T07:23:05.895Z,101609.98
2018-06-03T07:25:34.065Z,101608.76
2018-06-03T07:28:02.366Z,101608.41
2018-06-03T07:30:30.496Z,101607.44
2018-06-03T07:32:58.634Z,101605.59
2018-06-03T07:35:26.756Z,101608.12
2018-06-03T07:37:54.889Z,101608.60
2018-06-03T07:40:23.035Z,101612.36
2018-06-03T07:42:51.170Z,101611.56
2018-06-03T07:45:19.334Z,101614.86
2018-06-03T07:47:47.490Z,101612.40
2018-06-03T07:50:15.951Z,101614.59
2018-06-03T07:52:44.115Z,101611.83
2018-06-03T07:55:12.228Z,101612.01
2018-06-03T07:57:40.385Z,101608.33
2018-06-03T08:00:08.538Z,101605.73
2018-06-03T08:02:36.663Z,101610.61
2018-06-03T08:05:04.803Z,101607.23
2018-06-03T08:07:32.942Z,101609.55
2018-06-03T08:10:01.064Z,101607.47
2018-06-03T08:12:29.222Z,101609.11
2018-06-03T08:14:57.350Z,101613.52
2018-06-03T08:17:25.495Z,101614.17
2018-06-03T08:19:53.612Z,101609.87
2018-06-03T08:22:21.732Z,101607.72
2018-06-03T08:24:49.864Z,101606.27
2018-06-03T08:27:18.002Z,101604.55
2018-06-03T08:29:46.146Z,101603.73
2018-06-03T08:32:14.353Z,101603.35
2018-06-03T08:34:42.473Z,101600.22
2018-06-03T08:37:10.633Z,101599.39
2018-06-03T08:39:38.762Z,101596.61
2018-06-03T08:42:06.901Z,101597.28
2018-06-03T08:44:35.032Z,101597.59
2018-06-03T08:47:03.161Z,101599.25
2018-06-03T08:49:31.287Z,101598.48
2018-06-03T08:51:59.417Z,101598.20
2018-06-03T08:54:27.579Z,101606.06
2018-06-03T08:56:55.720Z,101603.86
2018-06-03T08:59:23.842Z,101609.73
2018-06-03T09:01:52.613Z,101607.55
2018-06-03T09:04:20.757Z,101603.84
2018-06-03T09:06:48.906Z,101608.66
2018-06-03T09:09:17.065Z,101608.27
2018-06-03T09:11:45.187Z,101604.72
2018-06-03T09:14:13.353Z,101603.47
2018-06-03T09:16:41.479Z,101607.08
2018-06-03T09:19:10.560Z,101608.86
2018-06-03T09:21:38.686Z,101604.62
2018-06-03T09:24:06.853Z,101601.76
2018-06-03T09:26:34.970Z,101600.53
2018-06-03T09:29:03.106Z,101600.09
2018-06-03T09:31:31.233Z,101600.66
2018-06-03T09:33:59.782Z,101598.80
2018-06-03T09:36:27.896Z,101601.30
2018-06-03T09:38:56.035Z,101606.09
2018-06-03T09:41:24.234Z,101598.28
2018-06-03T09:43:52.399Z,101600.09
2018-06-03T09:46:20.560Z,101602.56
2018-06-03T09:48:48.741Z,101596.13
2018-06-03T09:51:16.877Z,101588.08
2018-06-03T09:53:45.000Z,101591.92
2018-06-03T09:56:13.138Z,101589.48
2018-06-03T09:58:41.342Z,101586.18
2018-06-03T10:01:09.429Z,101581.10
2018-06-03T10:03:37.562Z,101580.05
2018-06-03T10:06:05.722Z,101583.48
2018-06-03T10:08:33.919Z,101577.22
2018-06-03T10:11:02.080Z,101579.01
2018-06-03T10:13:30.210Z,101580.91
2018-06-03T10:15:58.339Z,101585.44
2018-06-03T10:18:26.501Z,101586.14
2018-06-03T10:20:54.645Z,101584.07
2018-06-03T10:23:22.795Z,101581.33
2018-06-03T10:25:50.970Z,101582.87
2018-06-03T10:28:19.102Z,101581.05
2018-06-03T10:30:47.238Z,101582.59
2018-06-03T10:33:15.367Z,101574.11
2018-06-03T10:35:43.529Z,101577.27
2018-06-03T10:38:11.664Z,101577.95
2018-06-03T10:40:39.805Z,101577.24
2018-06-03T10:43:07.970Z,101572.47
2018-06-03T10:45:36.104Z,101563.55
2018-06-03T10:48:04.276Z,101564.27
2018-06-03T10:50:32.406Z,101563.84
2018-06-03T10:53:00.540Z,101558.49
2018-06-03T10:55:28.685Z,101567.27
2018-06-03T10:57:56.837Z,101570.23
2018-06-03T11:00:24.973Z,101566.54
2018-06-03T11:02:53.132Z,101561.05
2018-06-03T11:05:21.231Z,101559.67
2018-06-03T11:07:49.384Z,101557.86
2018-06-03T11:10:17.520Z,101552.78
2018-06-03T11:12:45.821Z,101540.44
2018-06-03T11:15:13.970Z,101548.91
2018-06-03T11:17:42.121Z,101541.52
2018-06-03T11:20:10.259Z,101544.70
2018-06-03T11:22:38.390Z,101541.05
2018-06-03T11:25:06.546Z,101543.78
2018-06-03T11:27:34.746Z,101540.95
2018-06-03T11:30:04.756Z,101539.23
2018-06-03T11:32:32.912Z,101540.17
2018-06-03T11:35:01.030Z,101541.07
2018-06-03T11:37:29.194Z,101534.52
2018-06-03T11:39:57.301Z,101533.20
2018-06-03T11:42:25.446Z,101528.09
2018-06-03T11:44:53.635Z,101530.11
2018-06-03T11:47:21.806Z,101527.73
2018-06-03T11:49:49.943Z,101526.42
2018-06-03T11:52:18.139Z,101521.09
2018-06-03T11:54:46.242Z,101521.65
2018-06-03T11:57:14.383Z,101515.47
2018-06-03T11:59:42.524Z,101516.50
2018-06-03T12:02:10.794Z,101510.96
2018-06-03T12:04:38.940Z,101510.52
2018-06-03T12:07:07.112Z,101508.50
2018-06-03T12:09:35.257Z,101513.61
2018-06-03T12:12:03.384Z,101510.33
2018-06-03T12:14:31.539Z,101516.43
2018-06-03T12:16:59.652Z,101515.93
2018-06-03T12:19:27.808Z,101512.44
2018-06-03T12:21:55.973Z,101508.35
2018-06-03T12:24:24.089Z,101511.70
2018-06-03T12:26:52.371Z,101509.12
2018-06-03T12:29:20.553Z,101508.55
2018-06-03T12:31:48.702Z,101500.70
2018-06-03T12:34:16.845Z,101501.07
2018-06-03T12:36:44.964Z,101505.89
2018-06-03T12:39:13.120Z,101500.98
2018-06-03T12:41:41.269Z,101497.52
2018-06-03T12:44:09.423Z,101496.46
2018-06-03T12:46:37.548Z,101496.89
2018-06-03T12:49:05.690Z,101494.44
2018-06-03T12:51:33.862Z,101492.95
2018-06-03T12:54:01.997Z,101486.97
2018-06-03T12:56:30.132Z,101477.98
2018-06-03T12:58:58.274Z,101476.87
2018-06-03T13:01:26.414Z,101473.44
2018-06-03T13:03:54.583Z,101474.81
2018-06-03T13:06:22.717Z,101483.86
2018-06-03T13:08:50.838Z,101478.38
2018-06-03T13:11:18.993Z,101473.31
2018-06-03T13:13:47.156Z,101473.57
2018-06-03T13:16:15.284Z,101472.48
2018-06-03T13:18:43.446Z,101470.52
2018-06-03T13:21:11.579Z,101466.41
2018-06-03T13:23:39.718Z,101469.72
2018-06-03T13:26:07.850Z,101472.28
2018-06-03T13:28:35.993Z,101471.16
2018-06-03T13:31:04.109Z,101463.45
2018-06-03T13:33:32.246Z,101454.91
2018-06-03T13:36:00.390Z,101453.30
2018-06-03T13:38:28.541Z,101452.19
2018-06-03T13:40:56.818Z,101452.36
2018-06-03T13:43:24.969Z,101454.97
2018-06-03T13:45:53.099Z,101450.05
2018-06-03T13:48:21.291Z,101440.30
2018-06-03T13:50:49.359Z,101439.20
2018-06-03T13:53:17.510Z,101434.81
2018-06-03T13:55:45.660Z,101436.09
2018-06-03T13:58:13.816Z,101425.75
2018-06-03T14:00:41.971Z,101424.67
2018-06-03T14:03:10.122Z,101414.58
2018-06-03T14:05:38.285Z,101409.11
2018-06-03T14:08:06.411Z,101407.60
2018-06-03T14:10:34.551Z,101409.27
2018-06-03T14:13:02.684Z,101404.86
2018-06-03T14:15:30.817Z,101396.47
2018-06-03T14:17:58.960Z,101393.98
2018-06-03T14:20:27.076Z,101393.82
2018-06-03T14:22:55.206Z,101389.34
2018-06-03T14:25:23.392Z,101386.14
2018-06-03T14:27:51.502Z,101387.06
2018-06-03T14:30:19.662Z,101381.75
2018-06-03T14:32:47.792Z,101378.75
2018-06-03T14:35:15.912Z,101371.23
2018-06-03T14:37:44.044Z,101372.46
2018-06-03T14:40:12.194Z,101362.92
2018-06-03T14:42:40.366Z,101358.66
2018-06-03T14:45:08.482Z,101357.60
2018-06-03T14:47:36.617Z,101357.23
2018-06-03T14:50:04.780Z,101361.62
2018-06-03T14:52:32.906Z,101358.19
2018-06-03T14:55:01.028Z,101348.92
2018-06-03T14:57:29.176Z,101352.69
2018-06-03T14:59:57.259Z,101349.43
2018-06-03T15:02:25.387Z,101347.42
2018-06-03T15:04:53.546Z,101347.69
2018-06-03T15:07:21.702Z,101340.83
2018-06-03T15:09:49.833Z,101340.83
2018-06-03T15:12:17.943Z,101330.14
2018-06-03T15:14:46.111Z,101326.44
2018-06-03T15:17:14.261Z,101330.02
2018-06-03T15:19:42.561Z,101331.45
2018-06-03T15:22:10.730Z,101324.22
2018-06-03T15:24:38.961Z,101325.03
2018-06-03T15:27:07.141Z,101317.20
2018-06-03T15:29:35.278Z,101317.20
2018-06-03T15:32:03.434Z,101313.62
2018-06-03T15:34:31.584Z,101308.37
2018-06-03T15:36:59.700Z,101307.12
2018-06-03T15:39:28.200Z,101302.41
2018-06-03T15:41:57.364Z,101305.42
2018-06-03T15:44:25.527Z,101303.54
2018-06-03T15:46:53.834Z,101302.67
2018-06-03T15:49:22.184Z,101296.02
2018-06-03T15:51:50.660Z,101292.63
2018-06-03T15:54:18.805Z,101294.31
2018-06-03T15:56:46.968Z,101285.38
2018-06-03T15:59:15.219Z,101285.79
2018-06-03T16:01:43.329Z,101287.81
2018-06-03T16:04:11.471Z,101285.19
2018-06-03T16:06:39.624Z,101287.45
2018-06-03T16:09:07.939Z,101280.34
2018-06-03T16:11:36.066Z,101280.03
2018-06-03T16:14:04.226Z,101283.05
2018-06-03T16:16:32.384Z,101282.86
2018-06-03T16:19:00.719Z,101275.15
2018-06-03T16:21:29.241Z,101279.03
2018-06-03T16:23:57.376Z,101268.03
2018-06-03T16:26:25.506Z,101261.08
2018-06-03T16:28:53.660Z,101268.84
2018-06-03T16:31:21.948Z,101265.17
2018-06-03T16:33:50.067Z,101266.38
2018-06-03T16:36:18.182Z,101269.18
2018-06-03T16:38:47.228Z,101258.88
2018-06-03T16:41:15.370Z,101256.58
2018-06-03T16:43:43.498Z,101256.94
2018-06-03T16:46:11.663Z,101255.72
2018-06-03T16:48:39.833Z,101251.72
2018-06-03T16:51:07.922Z,101255.20
2018-06-03T16:53:36.060Z,101252.91
2018-06-03T16:56:04.176Z,101255.69
2018-06-03T16:58:32.336Z,101253.89
2018-06-03T17:01:00.447Z,101251.59
2018-06-03T17:03:28.587Z,101252.84
2018-06-03T17:05:56.714Z,101243.95
2018-06-03T17:08:24.866Z,101247.44
2018-06-03T17:10:53.001Z,101252.80
2018-06-03T17:13:21.171Z,101243.20
2018-06-03T17:15:49.368Z,101241.11
2018-06-03T17:18:17.505Z,101242.92
2018-06-03T17:20:45.625Z,101233.89
2018-06-03T17:23:13.781Z,101230.61
2018-06-03T17:25:41.922Z,101230.06
2018-06-03T17:28:10.073Z,101234.08
2018-06-03T17:30:38.194Z,101225.38
2018-06-03T17:33:06.347Z,101225.12
2018-06-03T17:35:34.523Z,101221.31
2018-06-03T17:38:02.654Z,101217.75
2018-06-03T17:40:30.790Z,101210.66
2018-06-03T17:42:58.919Z,101216.17
2018-06-03T17:45:27.085Z,101208.80
2018-06-03T17:47:56.122Z,101213.36
2018-06-03T17:50:24.264Z,101211.14
2018-06-03T17:52:52.393Z,101211.00
2018-06-03T17:55:20.525Z,101217.03
2018-06-03T17:57:48.712Z,101213.20
2018-06-03T18:00:16.906Z,101212.59
2018-06-03T18:02:45.038Z,101208.23
2018-06-03T18:05:13.180Z,101210.59
2018-06-03T18:07:41.328Z,101207.59
2018-06-03T18:10:09.474Z,101202.02
2018-06-03T18:12:37.630Z,101196.02
2018-06-03T18:15:05.750Z,101201.97
2018-06-03T18:17:33.870Z,101198.31
2018-06-03T18:20:02.022Z,101197.95
2018-06-03T18:22:30.196Z,101198.27
2018-06-03T18:24:58.265Z,101202.42
2018-06-03T18:27:27.308Z,101199.83
2018-06-03T18:29:55.471Z,101206.16
2018-06-03T18:32:23.614Z,101204.49
2018-06-03T18:34:51.830Z,101200.52
2018-06-03T18:37:19.973Z,101200.09
2018-06-03T18:39:48.112Z,101204.16
2018-06-03T18:42:16.239Z,101204.46
2018-06-03T18:44:44.368Z,101206.83
2018-06-03T18:47:12.676Z,101213.28
2018-06-03T18:49:40.840Z,101213.43
2018-06-03T18:52:09.199Z,101207.83
2018-06-03T18:54:37.470Z,101204.41
2018-06-03T18:57:05.617Z,101211.72
2018-06-03T18:59:33.833Z,101202.31
2018-06-03T19:02:01.939Z,101209.87
2018-06-03T19:04:30.074Z,101210.70
2018-06-03T19:06:58.211Z,101208.66
2018-06-03T19:09:26.338Z,101207.71
2018-06-03T19:11:54.490Z,101201.97
2018-06-03T19:14:22.634Z,101206.24
2018-06-03T19:16:50.739Z,101199.42
2018-06-03T19:19:18.933Z,101203.70
2018-06-03T19:21:47.404Z,101201.77
2018-06-03T19:24:15.566Z,101200.03
2018-06-03T19:26:43.706Z,101201.97
2018-06-03T19:29:11.829Z,101194.75
2018-06-03T19:31:39.992Z,101202.97
2018-06-03T19:34:08.117Z,101197.34
2018-06-03T19:36:36.457Z,101202.29
2018-06-03T19:39:04.654Z,101209.28
2018-06-03T19:41:32.775Z,101208.61
2018-06-03T19:44:01.029Z,101206.31
2018-06-03T19:46:29.336Z,101212.60
2018-06-03T19:48:57.472Z,101220.45
2018-06-03T19:51:26.328Z,101224.15
2018-06-03T19:53:54.507Z,101222.80
2018-06-03T19:56:22.649Z,101231.30
2018-06-03T19:58:50.785Z,101230.22
2018-06-03T20:01:19.067Z,101229.25
2018-06-03T20:03:47.188Z,101225.16
2018-06-03T20:06:15.316Z,101226.96
2018-06-03T20:08:43.460Z,101224.38
2018-06-03T20:11:11.587Z,101222.31
2018-06-03T20:13:39.729Z,101226.99
2018-06-03T20:16:07.875Z,101221.24
2018-06-03T20:18:35.990Z,101224.55
2018-06-03T20:21:04.135Z,101222.48
2018-06-03T20:23:32.288Z,101221.52
2018-06-03T20:26:00.453Z,101223.03
2018-06-03T20:28:28.616Z,101226.58
2018-06-03T20:30:56.724Z,101227.95
2018-06-03T20:33:25.011Z,101225.64
2018-06-03T20:35:53.127Z,101226.87
2018-06-03T20:38:21.240Z,101232.05
2018-06-03T20:40:49.561Z,101232.48
2018-06-03T20:43:17.694Z,101224.95
2018-06-03T20:45:45.869Z,101229.19
2018-06-03T20:48:13.979Z,101233.00
2018-06-03T20:50:42.111Z,101235.88
2018-06-03T20:53:10.308Z,101231.92
2018-06-03T20:55:38.487Z,101236.44
2018-06-03T20:58:06.610Z,101231.53
2018-06-03T21:00:34.778Z,101234.38
2018-06-03T21:03:02.896Z,101232.63
2018-06-03T21:05:31.129Z,101236.03
2018-06-03T21:07:59.294Z,101233.99
2018-06-03T21:10:27.476Z,101239.17
2018-06-03T21:12:55.635Z,101235.75
2018-06-03T21:15:23.759Z,101235.08
2018-06-03T21:17:51.882Z,101243.27
2018-06-03T21:20:20.271Z,101241.34
2018-06-03T21:22:48.448Z,101238.61
2018-06-03T21:25:16.594Z,101238.09
2018-06-03T21:27:44.766Z,101235.22
2018-06-03T21:30:12.888Z,101234.38
2018-06-03T21:32:41.026Z,101240.95
2018-06-03T21:35:09.180Z,101235.06
2018-06-03T21:37:37.346Z,101235.88
2018-06-03T21:40:05.470Z,101235.20
2018-06-03T21:42:33.613Z,101227.28
2018-06-03T21:45:01.791Z,101225.36
2018-06-03T21:47:29.989Z,101223.05
2018-06-03T21:49:58.199Z,101223.85
2018-06-03T21:52:26.326Z,101222.34
2018-06-03T21:54:54.446Z,101222.77
2018-06-03T21:57:22.587Z,101227.13
2018-06-03T21:59:50.782Z,101218.20
2018-06-03T22:02:18.996Z,101217.78
2018-06-03T22:04:47.184Z,101222.58
2018-06-03T22:07:15.356Z,101222.30
2018-06-03T22:09:43.509Z,101224.22
2018-06-03T22:12:11.648Z,101218.89
2018-06-03T22:14:39.820Z,101210.41
2018-06-03T22:17:08.060Z,101214.51
2018-06-03T22:19:37.101Z,101217.09
2018-06-03T22:22:05.250Z,101209.19
2018-06-03T22:24:33.412Z,101209.98
2018-06-03T22:27:01.538Z,101204.94
2018-06-03T22:29:29.696Z,101206.97
2018-06-03T22:31:58.002Z,101201.92
2018-06-03T22:34:26.121Z,101206.01
2018-06-03T22:36:54.273Z,101203.70
2018-06-03T22:39:22.449Z,101203.69
2018-06-03T22:41:50.756Z,101204.77
2018-06-03T22:44:18.896Z,101209.29
2018-06-03T22:46:47.027Z,101206.80
2018-06-03T22:49:15.171Z,101208.59
2018-06-03T22:51:43.328Z,101209.02
2018-06-03T22:54:11.471Z,101203.69
2018-06-03T22:56:39.603Z,101205.20
2018-06-03T22:59:07.758Z,101207.08
2018-06-03T23:01:35.891Z,101208.02
2018-06-03T23:04:04.032Z,101198.73
2018-06-03T23:06:32.192Z,101203.77
2018-06-03T23:09:00.404Z,101206.24
2018-06-03T23:11:28.537Z,101201.45
2018-06-03T23:13:56.696Z,101193.27
2018-06-03T23:16:24.816Z,101200.64
2018-06-03T23:18:53.120Z,101192.31
2018-06-03T23:21:21.251Z,101198.42
2018-06-03T23:23:49.381Z,101198.68
2018-06-03T23:26:17.540Z,101192.95
2018-06-03T23:28:45.652Z,101191.05
2018-06-03T23:31:13.784Z,101188.47
2018-06-03T23:33:41.922Z,101184.08
2018-06-03T23:36:10.077Z,101184.49
2018-06-03T23:38:38.214Z,101178.05
2018-06-03T23:41:06.342Z,101180.25
2018-06-03T23:43:34.630Z,101183.36
2018-06-03T23:46:02.781Z,101182.55
2018-06-03T23:48:30.913Z,101174.64
2018-06-03T23:50:59.069Z,101182.40
2018-06-03T23:53:27.220Z,101179.94
2018-06-03T23:55:55.491Z,101179.52
2018-06-03T23:58:23.649Z,101182.12
